Liliu Sappinen

Recruteur - Flora
4 Juin 2028
Dimanche
Processus

Personnalité

Adaptabilité (5) Ambition (2) Controverse (1) Loyauté (13) Pression (15) Professionnalisme (8) Sportivité (9) Tempérament (15)

Profil

Style d'entraînement Démocratique
Diplôme Continental C
Détermination 7
Gestion des joueurs 6
Motivation 8
Discipline 6
Satisfaction professionnelle
100%
Fatigue
0%
Rôle Recruteur
Salaire 31.5K p/s
Contrat 14.03.2030

Performance

Comportement Bon
Efficacité de l'entraînement
39%
Développement des joueurs
25%
Prévention des blessures
50%
Mise en place tactique
30%

Événements récents

A participé à une réunion de recrutement maintenant
A recommandé une cible de transfert maintenant
A recommandé une cible de transfert maintenant
A recommandé une cible de transfert maintenant
A évalué un joueur maintenant
A recommandé une cible de transfert 7j
A recommandé une cible de transfert 7j
A recommandé une cible de transfert 7j

Suivi en cours

101
Joueur Club Statut Capacité Confiance Observé Dernière observation Dernier vote
Enzon Bernal FCI Tallinn Rapport prêt 86 / 85 79% 1 01.06.2028 -
Vladimir Khubulov Dinamo Makhachkala Actif 108 / 116 40% 1 31.05.2028 -
Gamid Agalarov Orenburg Actif 113 / 109 40% 1 31.05.2028 -
Joshua Ajala Walsall Actif 100 / 96 40% 1 31.05.2028 -
Fernando Costanza Krylya Sovetov Actif 124 / 126 40% 1 31.05.2028 -
Alexandr Ivankov Torpedo Moscow Actif 115 / 108 40% 1 31.05.2028 -
Josh Tymon Swansea City Actif 136 / 122 40% 1 31.05.2028 -
Vicente Poggi Godoy Cruz Actif 117 / 112 40% 1 03.01.2028 -
Ignacio Saavedra Sochi Actif 117 / 123 40% 1 03.01.2028 -
Stanislav Magkeev Fakel Actif 118 / 103 40% 1 03.01.2028 -
Rogert Díaz FCI Tallinn Actif 95 / 95 76% 1 01.01.2028 Approuver
Jacob Dicko Eng Paide Actif 101 / 104 42% 1 / 1m 03.11.2027 -
Tomás Clavijo Narva Trans Actif 81 / 82 72% 1 12.07.2027 Approuver
Chilem Williams Ignatius Tammeka Actif 74 / 79 30% 1 / 1m 16.06.2027 -
Pavel Marin Tammeka Actif 96 / 96 30% 1 / 1m 16.06.2027 -
Iker Pozo Rodina Actif 123 / 114 40% 4 31.05.2027 -
Yegor Noskov SKA Khabarovsk Actif 91 / 101 40% 1 31.05.2027 -
Denis Fomin SKA Khabarovsk Actif 92 / 92 40% 2 30.05.2027 -
Daniil Penchikov Arsenal Tula Actif 105 / 107 40% 2 30.05.2027 -
Edgardo Fariña Nizhniy Novgorod Actif 117 / 108 40% 1 30.05.2027 -
Garrik Levin Chelyabinsk Actif 108 / 107 40% 2 29.05.2027 -
Temirkan Sundukov Dinamo Makhachkala Actif 110 / 120 40% 2 28.05.2027 -
Pavel Maslov Chaika Actif 105 / 111 40% 4 28.05.2027 -
Mitja Križan Rodina Actif 103 / 111 40% 2 24.05.2027 -
Francis Gomez Cardiff City Actif 110 / 121 40% 1 24.05.2027 -
Mario Ćurić Torpedo Moscow Actif 102 / 100 40% 3 23.05.2027 -
Ítalo Ural Actif 107 / 110 40% 3 23.05.2027 -
Konstantin Kovalev Volga Actif 96 / 91 40% 1 23.05.2027 -
Mamadou Maïga Nizhniy Novgorod Actif 107 / 113 40% 3 22.05.2027 -
Danila Vedernikov Orenburg Actif 104 / 100 40% 2 22.05.2027 -
Artem Makarchuk Sochi Actif 115 / 105 40% 2 18.05.2027 -
Nikita Pechenkin Sokol Actif 98 / 104 40% 2 18.05.2027 -
Joe Snowdon Swindon Town Actif 103 / 98 40% 1 18.05.2027 -
Vladis Emmersón Yenisey Actif 105 / 106 40% 4 17.05.2027 -
Nikita Kakkoev Nizhniy Novgorod Actif 120 / 105 40% 1 17.05.2027 -
Nader Mohammadi Spartak Kostroma Actif 100 / 94 40% 3 16.05.2027 -
Idar Shumakhov Dinamo Makhachkala Actif 108 / 104 40% 3 14.05.2027 -
Riley Owen Stevenage Actif 111 / 118 40% 1 14.05.2027 -
Soslan Takulov Arsenal Tula Actif 102 / 98 40% 3 13.05.2027 -
Daniil Marugin Shinnik Actif 101 / 92 40% 2 11.05.2027 -
Kirill Bolshakov Arsenal Tula Actif 104 / 110 40% 2 11.05.2027 -
Igor Konovalov Chernomorets Actif 105 / 92 40% 4 09.05.2027 -
Alexandr Troshechkin Rotor Actif 110 / 96 40% 1 04.05.2027 -
Eneko Astigarraga Real Sociedad Actif 107 / 113 40% 1 04.05.2027 -
Alexey Berdnikov Chelyabinsk Actif 104 / 99 40% 3 30.04.2027 -
Miloš Brnović Arsenal Tula Actif 120 / 103 40% 1 30.04.2027 -
Zech Medley Fleetwood Town Actif 90 / 115 40% 1 26.04.2027 -
Dmitry Pestryakov Krasnodar Actif 118 / 130 40% 1 26.04.2027 -
Kirill Malyarov Shinnik Actif 101 / 95 40% 3 25.04.2027 -
Maxim Shnaptsev Baltika Actif 104 / 102 40% 1 25.04.2027 -
Alexandr Ektov Nizhniy Novgorod Actif 115 / 113 40% 2 21.04.2027 -
Dominik Oroz Krylya Sovetov Actif 114 / 111 40% 2 13.04.2027 -
Vyacheslav Litvinov Sochi Actif 106 / 112 40% 1 13.04.2027 -
Islamzhan Nasyrov Ryazan Actif 87 / 95 40% 2 04.04.2027 -
Saminu Abdullahi KAMAZ Actif 106 / 111 40% 2 02.04.2027 -
Faruk Gogić Spartak Kostroma Actif 103 / 92 40% 1 02.04.2027 -
Eldar Ćivić Baltika Actif 115 / 118 40% 3 01.04.2027 -
Artemy Kosogorov Shinnik Actif 95 / 92 40% 1 01.04.2027 -
Andrés Alarcón Dinamo Makhachkala Actif 119 / 117 40% 2 31.03.2027 -
Ruslan Baitukov Chelyabinsk Actif 93 / 88 40% 1 31.03.2027 -
Artem Meschaninov Rodina Actif 101 / 96 40% 1 29.03.2027 -
David Kokoev Yenisey Actif 105 / 99 40% 2 17.03.2027 -
Alan Tsaraev Arsenal Tula Actif 109 / 96 40% 1 17.03.2027 -
Khetag Khosonov Akron Actif 108 / 109 40% 1 17.03.2027 -
David Shavlokhov Chernomorets Actif 92 / 102 40% 3 16.03.2027 -
Vladislav Masternoy SKA Khabarovsk Actif 100 / 100 40% 1 16.03.2027 -
Alan Khabalov Ufa Actif 89 / 85 40% 1 16.03.2027 -
Bojan Roganović Torpedo Moscow Actif 105 / 102 40% 2 06.03.2027 -
Alexandr Soldatenkov Sochi Actif 119 / 118 40% 1 05.03.2027 -
Kirill Bozhenov Sokol Actif 96 / 88 40% 2 03.03.2027 -
Gleb Shevchenko Torpedo Moscow Actif 111 / 104 40% 1 01.03.2027 -
Robert Mejía Orenburg Actif 120 / 106 40% 1 01.03.2027 -
Ebrima Jarju Paide Actif 96 / 91 69% 1 04.01.2027 Approuver
Evgeniy Abramovich Slavia Mozyr Actif 91 / 106 40% 3 02.01.2027 -
Igor Leschuk Dinamo Moscow Actif 124 / 112 40% 1 02.01.2027 -
Said Aliev Rotor Actif 99 / 87 40% 1 31.12.2026 -
Alexandr Yushin Torpedo Moscow Actif 111 / 113 40% 1 31.12.2026 -
Igor Obukhov Fakel Actif 101 / 93 40% 1 29.12.2026 -
Oleh Bilyk Epicentr Actif 105 / 102 40% 1 29.12.2026 -
Maxim Borisko CSKA Moscow Actif 131 / 116 40% 2 28.12.2026 -
Marat Bokoev Akron Actif 116 / 116 40% 2 27.12.2026 -
Ilja Pomazun Spartak Moscow Actif 114 / 129 40% 3 25.12.2026 -
Timur Akmurzin Dinamo Bryansk Actif 86 / 90 40% 1 25.12.2026 -
Ionuţ Nedelcearu Akron Actif 114 / 105 40% 1 20.12.2026 -
Sergey Volkov Rodina Actif 103 / 109 40% 2 18.12.2026 -
Vitaly Gudiev Akron Actif 106 / 99 40% 1 18.12.2026 -
Alkalifa Coulibaly Onze Createurs Actif 95 / 94 40% 1 13.12.2026 -
Alexandr Filin Baltika Actif 117 / 104 40% 1 13.12.2026 -
Soslan Kagermazov Dinamo Makhachkala Actif 99 / 88 40% 1 08.12.2026 -
Giorgi Kantaria Neftekhimik Actif 101 / 101 40% 1 08.12.2026 -
Anton Mitryushkin Lokomotiv Moscow Actif 116 / 128 40% 1 28.11.2026 -
Alexey Kuznetsov Leningradets Actif 98 / 89 40% 1 27.11.2026 -
Facundo Altamirano San Lorenzo Actif 124 / 128 40% 1 24.11.2026 -
Maycon Cleiton Zira Actif 114 / 96 40% 1 24.11.2026 -
Maxim Belov Dinamo Brest Actif 100 / 89 40% 1 21.11.2026 -
Fahd Moufi Baltika Actif 112 / 119 40% 1 19.11.2026 -
Luke Southwood Bristol Rovers Actif 114 / 99 40% 1 19.11.2026 -
Luke McGee Tranmere Rovers Actif 99 / 112 40% 1 19.11.2026 -
Rayan Kolli Queens Park Rangers Actif 120 / 95 40% 1 01.08.2026 -
Jacobo Alcalde SKA Khabarovsk Actif 90 / 84 40% 1 01.08.2026 -
Sebastián Cocimano Nueva Chicago Actif 113 / 117 40% 1 01.08.2026 -